Time;durP1;ratioP1;P1;durP2;ratioP2;P2;SDS_P1;SDS_P2;PMS_P1;PMS_P2;Temp;Humidity;BMP_temperature;BMP_pressure;BME280_temperature;BME280_humidity;BME280_pressure;Samples;Min_cycle;Max_cycle;Signal;HPM_P1;HPM_P2
2022/03/07 00:03:38;;;;;;;8.53;4.97;;;1.60;99.90;;;;;;10194519;29;20229;-80
2022/03/07 00:09:01;;;;;;;9.40;4.60;;;1.50;99.90;;;;;;10209829;29;20201;-80
2022/03/07 00:14:23;;;;;;;12.67;5.57;;;1.40;99.90;;;;;;10207436;29;20242;-80
2022/03/07 00:19:45;;;;;;;13.10;5.67;;;1.20;99.90;;;;;;10194827;29;20217;-78
2022/03/07 00:25:08;;;;;;;10.40;5.10;;;1.10;99.90;;;;;;10193184;29;20273;-80
2022/03/07 00:30:29;;;;;;;9.93;5.83;;;1.10;99.90;;;;;;10189739;29;20199;-80
2022/03/07 00:35:52;;;;;;;12.03;6.67;;;1.00;99.90;;;;;;10211523;29;20446;-79
2022/03/07 00:41:16;;;;;;;12.33;6.63;;;0.90;99.90;;;;;;10201849;29;20292;-79
2022/03/07 00:46:39;;;;;;;11.53;5.93;;;0.80;99.90;;;;;;10200788;29;20223;-80
2022/03/07 00:52:04;;;;;;;11.10;6.00;;;0.80;99.90;;;;;;10187291;29;20224;-79
2022/03/07 00:57:26;;;;;;;10.47;5.70;;;0.70;99.90;;;;;;10200267;29;20198;-79
2022/03/07 01:02:47;;;;;;;11.20;6.33;;;0.60;99.90;;;;;;10202306;29;20238;-79
2022/03/07 01:08:12;;;;;;;12.70;7.20;;;0.60;99.90;;;;;;10215258;29;20202;-79
2022/03/07 01:13:35;;;;;;;13.83;7.43;;;0.60;99.90;;;;;;10215504;29;20207;-79
2022/03/07 01:18:58;;;;;;;12.57;7.50;;;0.70;99.90;;;;;;10212545;29;20205;-79
2022/03/07 01:24:21;;;;;;;14.67;8.80;;;0.70;99.90;;;;;;10201109;29;20251;-79
2022/03/07 01:29:43;;;;;;;12.47;7.23;;;0.70;99.90;;;;;;10198648;29;20283;-80
2022/03/07 01:35:07;;;;;;;12.57;7.80;;;0.60;99.90;;;;;;10199634;29;20661;-80
2022/03/07 01:40:29;;;;;;;10.47;7.67;;;0.60;99.90;;;;;;10199654;29;20237;-80
2022/03/07 01:45:52;;;;;;;13.23;7.33;;;0.60;99.90;;;;;;10213757;29;20200;-80
2022/03/07 01:51:16;;;;;;;12.50;7.27;;;0.50;99.90;;;;;;10211576;29;20245;-78
2022/03/07 01:56:45;;;;;;;12.20;7.00;;;0.50;99.90;;;;;;10200552;29;20231;-80
2022/03/07 02:02:08;;;;;;;15.50;8.27;;;0.50;99.90;;;;;;10210895;29;20299;-79
2022/03/07 02:07:31;;;;;;;13.40;7.93;;;0.40;99.90;;;;;;10197639;29;20196;-80
2022/03/07 02:12:55;;;;;;;14.03;9.10;;;0.50;99.90;;;;;;10184196;29;20211;-79
2022/03/07 02:18:21;;;;;;;15.00;9.87;;;0.50;99.90;;;;;;10210527;29;20196;-79
2022/03/07 02:23:45;;;;;;;14.77;9.33;;;0.50;99.90;;;;;;10195949;29;20307;-80
2022/03/07 02:29:09;;;;;;;15.10;8.17;;;0.50;99.90;;;;;;10196235;29;20201;-79
2022/03/07 02:34:32;;;;;;;15.87;8.70;;;0.50;99.90;;;;;;10197506;29;20200;-79
2022/03/07 02:39:55;;;;;;;13.10;8.13;;;0.50;99.90;;;;;;10196470;29;20222;-79
2022/03/07 02:45:39;;;;;;;16.03;9.13;;;0.40;99.90;;;;;;10195724;29;20293;-79
2022/03/07 02:51:01;;;;;;;14.73;8.47;;;0.40;99.90;;;;;;10182642;29;20205;-79
2022/03/07 02:56:25;;;;;;;17.80;9.60;;;0.40;99.90;;;;;;10211239;29;20197;-79
2022/03/07 03:01:48;;;;;;;18.60;9.97;;;0.20;99.90;;;;;;10196265;29;20263;-78
2022/03/07 03:07:11;;;;;;;19.47;10.17;;;0.30;99.90;;;;;;10195992;29;20223;-79
2022/03/07 03:12:33;;;;;;;13.27;8.87;;;0.20;99.90;;;;;;10195449;29;20530;-79
2022/03/07 03:17:55;;;;;;;14.03;9.43;;;0.10;99.90;;;;;;10208077;29;20205;-79
2022/03/07 03:23:19;;;;;;;14.53;9.00;;;0.20;99.90;;;;;;10194418;29;20248;-79
2022/03/07 03:28:42;;;;;;;17.73;9.07;;;0.30;99.90;;;;;;10210444;29;20431;-79
2022/03/07 03:34:04;;;;;;;17.63;10.03;;;0.40;99.90;;;;;;10195854;29;20201;-79
2022/03/07 03:39:26;;;;;;;14.17;9.40;;;0.50;99.90;;;;;;10210663;29;20276;-80
2022/03/07 03:44:49;;;;;;;15.57;9.60;;;0.50;99.90;;;;;;10195771;29;20403;-79
2022/03/07 03:50:13;;;;;;;17.33;10.70;;;0.50;99.90;;;;;;10209947;29;20201;-78
2022/03/07 03:55:36;;;;;;;20.50;12.90;;;0.40;99.90;;;;;;10210605;29;20518;-78
2022/03/07 04:00:58;;;;;;;19.17;11.80;;;0.50;99.90;;;;;;10209863;29;20559;-79
2022/03/07 04:06:21;;;;;;;15.23;9.83;;;0.50;99.90;;;;;;10210168;29;20198;-80
2022/03/07 04:11:44;;;;;;;23.53;14.63;;;0.50;99.90;;;;;;10200556;29;20526;-79
2022/03/07 04:17:07;;;;;;;21.33;12.93;;;0.50;99.90;;;;;;10217352;29;20192;-79
2022/03/07 04:22:29;;;;;;;18.00;10.47;;;0.40;99.90;;;;;;10205243;29;20236;-80
2022/03/07 04:27:51;;;;;;;13.10;9.83;;;0.30;99.90;;;;;;10203494;29;20511;-80
2022/03/07 04:33:15;;;;;;;12.37;8.50;;;0.30;99.90;;;;;;10201031;29;20284;-79
2022/03/07 04:38:37;;;;;;;15.13;9.23;;;0.20;99.90;;;;;;10202056;29;20268;-80
2022/03/07 04:43:59;;;;;;;16.80;10.63;;;0.20;99.90;;;;;;10201473;29;20521;-78
2022/03/07 04:49:21;;;;;;;16.40;10.77;;;0.10;99.90;;;;;;10201260;29;20264;-79
2022/03/07 04:54:43;;;;;;;16.30;10.77;;;0.00;99.90;;;;;;10200050;29;20233;-81
2022/03/07 05:00:09;;;;;;;12.73;8.83;;;-0.10;99.90;;;;;;10213427;29;20268;-80
2022/03/07 05:05:31;;;;;;;15.30;8.50;;;-0.10;99.90;;;;;;10200192;29;20499;-79
2022/03/07 05:10:53;;;;;;;14.10;9.70;;;-0.10;99.90;;;;;;10201607;29;20227;-80
2022/03/07 05:16:15;;;;;;;14.50;9.67;;;-0.20;99.90;;;;;;10186052;29;20197;-79
2022/03/07 05:21:37;;;;;;;12.63;8.77;;;-0.20;99.90;;;;;;10199862;29;20427;-80
2022/03/07 05:26:59;;;;;;;18.57;11.50;;;-0.30;99.90;;;;;;10198922;29;20237;-79
2022/03/07 05:32:21;;;;;;;24.23;12.60;;;-0.30;99.90;;;;;;10215198;29;20207;-79
2022/03/07 05:37:43;;;;;;;26.50;12.87;;;-0.20;99.90;;;;;;10185945;29;20278;-80
2022/03/07 05:43:06;;;;;;;19.30;10.63;;;-0.20;99.90;;;;;;10199424;29;20225;-80
2022/03/07 05:48:28;;;;;;;16.43;10.13;;;-0.20;99.90;;;;;;10213648;29;20197;-80
2022/03/07 05:53:50;;;;;;;16.13;10.90;;;-0.20;99.90;;;;;;10199068;29;20280;-78
2022/03/07 05:59:14;;;;;;;13.47;9.23;;;-0.20;99.90;;;;;;10210945;29;20200;-79
2022/03/07 06:04:36;;;;;;;14.27;8.87;;;-0.20;99.90;;;;;;10198754;29;20299;-80
2022/03/07 06:09:58;;;;;;;18.13;10.13;;;-0.10;99.90;;;;;;10212664;29;20258;-78
2022/03/07 06:15:21;;;;;;;21.10;9.73;;;0.00;99.90;;;;;;10197928;29;20207;-79
2022/03/07 06:20:43;;;;;;;18.90;9.70;;;0.10;99.90;;;;;;10183045;29;20251;-79
2022/03/07 06:26:07;;;;;;;88.70;41.07;;;0.20;99.90;;;;;;10196896;29;20241;-79
2022/03/07 06:31:29;;;;;;;29.73;16.70;;;0.30;99.90;;;;;;10212011;29;20226;-80
2022/03/07 06:36:51;;;;;;;42.90;19.43;;;0.40;99.90;;;;;;10182034;29;20204;-78
2022/03/07 06:42:13;;;;;;;28.33;14.17;;;0.50;99.90;;;;;;10182290;29;20589;-79
2022/03/07 06:47:35;;;;;;;36.30;19.00;;;0.70;99.90;;;;;;10195827;29;20195;-79
2022/03/07 06:52:59;;;;;;;70.27;37.13;;;1.10;99.90;;;;;;10196175;29;20201;-79
2022/03/07 06:58:21;;;;;;;33.70;17.50;;;2.00;99.90;;;;;;10210739;29;20203;-80
2022/03/07 07:03:44;;;;;;;34.77;16.77;;;3.80;99.90;;;;;;10196002;29;20220;-79
2022/03/07 07:09:07;;;;;;;58.30;29.27;;;5.60;99.90;;;;;;10194871;29;20194;-79
2022/03/07 07:14:29;;;;;;;25.00;13.20;;;7.40;99.90;;;;;;10210682;29;20202;-80
2022/03/07 07:19:52;;;;;;;16.73;9.07;;;8.10;99.90;;;;;;10194868;29;20274;-80
2022/03/07 07:25:14;;;;;;;9.88;6.40;;;9.10;99.90;;;;;;10194211;29;20243;-79
2022/03/07 07:30:36;;;;;;;15.07;5.63;;;9.60;99.90;;;;;;10210112;29;20260;-81
2022/03/07 07:35:59;;;;;;;8.57;5.38;;;10.10;99.40;;;;;;10209832;29;20263;-79
2022/03/07 07:41:21;;;;;;;18.50;9.48;;;10.60;95.10;;;;;;10210441;29;20231;-82
2022/03/07 07:46:43;;;;;;;13.00;5.47;;;11.00;95.40;;;;;;10213961;29;20215;-83
2022/03/07 07:52:21;;;;;;;14.80;6.45;;;11.40;91.90;;;;;;10217955;29;20214;-82
2022/03/07 07:57:44;;;;;;;18.58;8.52;;;11.40;91.70;;;;;;10217296;29;20198;-81
2022/03/07 08:03:07;;;;;;;16.70;9.43;;;11.70;86.30;;;;;;10201938;29;20241;-81
2022/03/07 08:08:30;;;;;;;16.45;9.32;;;12.10;76.80;;;;;;10201200;29;20209;-80
2022/03/07 08:13:52;;;;;;;9.10;4.93;;;12.50;78.70;;;;;;10201571;29;20233;-79
2022/03/07 08:19:14;;;;;;;7.95;3.65;;;13.00;65.30;;;;;;10204517;29;20243;-82
2022/03/07 08:24:36;;;;;;;9.18;5.35;;;13.40;58.30;;;;;;10202922;29;20255;-83
2022/03/07 08:29:58;;;;;;;22.38;10.30;;;13.10;54.60;;;;;;10217357;29;20532;-82
2022/03/07 08:35:23;;;;;;;8.13;3.42;;;13.10;55.40;;;;;;10137543;29;20263;-81
2022/03/07 08:40:48;;;;;;;6.70;3.67;;;13.10;56.50;;;;;;10148693;29;20289;-85
2022/03/07 08:46:11;;;;;;;13.48;6.40;;;13.70;49.10;;;;;;10199353;29;20208;-82
2022/03/07 08:51:34;;;;;;;22.30;10.98;;;13.80;44.50;;;;;;10208785;29;20204;-80
2022/03/07 08:56:56;;;;;;;14.48;5.93;;;13.70;43.90;;;;;;10208390;29;20495;-81
2022/03/07 09:02:18;;;;;;;13.23;6.82;;;13.50;44.70;;;;;;10168847;29;20231;-80
2022/03/07 09:07:40;;;;;;;22.67;12.40;;;13.60;44.10;;;;;;10181947;29;20201;-82
2022/03/07 09:13:02;;;;;;;17.17;8.98;;;14.00;43.80;;;;;;10194102;29;20255;-81
2022/03/07 09:18:26;;;;;;;18.52;10.05;;;13.80;41.50;;;;;;10210048;29;20503;-81
2022/03/07 09:23:49;;;;;;;13.52;7.80;;;13.70;41.80;;;;;;10206115;29;20257;-81
2022/03/07 09:29:12;;;;;;;18.00;9.95;;;13.10;44.00;;;;;;10200011;29;20278;-79
2022/03/07 09:34:35;;;;;;;23.90;9.67;;;11.70;59.60;;;;;;10211715;28;20526;-82
2022/03/07 09:39:59;;;;;;;11.50;6.23;;;10.70;79.00;;;;;;10225238;29;20212;-80
2022/03/07 09:45:21;;;;;;;8.18;4.15;;;11.00;82.60;;;;;;10207017;29;20243;-79
2022/03/07 09:50:44;;;;;;;8.90;5.18;;;11.60;67.40;;;;;;10193052;29;20204;-90
2022/03/07 09:56:06;;;;;;;11.63;6.32;;;12.40;61.10;;;;;;10206814;29;20437;-81
2022/03/07 10:01:28;;;;;;;12.77;6.68;;;13.30;53.00;;;;;;10204580;29;20316;-79
2022/03/07 10:06:51;;;;;;;5.43;3.13;;;14.30;43.60;;;;;;10178822;29;20398;-80
2022/03/07 10:12:15;;;;;;;22.30;6.13;;;14.50;40.40;;;;;;10190137;29;20570;-80
2022/03/07 10:17:45;;;;;;;13.05;5.80;;;14.50;39.30;;;;;;10191447;29;20282;-81
2022/03/07 10:23:09;;;;;;;8.82;3.80;;;14.60;37.90;;;;;;10193896;29;20262;-80
2022/03/07 10:28:35;;;;;;;9.38;3.30;;;14.20;38.90;;;;;;10190565;29;20212;-82
2022/03/07 10:34:10;;;;;;;6.75;4.35;;;13.80;37.70;;;;;;10204177;29;20217;-80
2022/03/07 10:39:32;;;;;;;14.82;4.85;;;13.30;40.10;;;;;;10205041;29;20265;-80
2022/03/07 10:45:06;;;;;;;16.48;6.97;;;13.50;39.50;;;;;;10196735;29;20234;-78
2022/03/07 10:50:30;;;;;;;7.05;3.20;;;13.20;40.60;;;;;;10191527;29;20202;-82
2022/03/07 10:55:57;;;;;;;5.93;3.00;;;13.40;40.80;;;;;;10177488;29;20243;-80
2022/03/07 11:01:28;;;;;;;12.70;5.30;;;12.70;43.40;;;;;;10192367;29;20560;-83
2022/03/07 11:06:52;;;;;;;12.73;6.30;;;12.80;43.50;;;;;;10176432;29;20208;-81
2022/03/07 11:12:15;;;;;;;13.80;7.30;;;13.30;40.80;;;;;;10205292;29;20236;-83
2022/03/07 11:17:42;;;;;;;7.95;4.30;;;13.40;41.60;;;;;;10205578;29;20214;-81
2022/03/07 11:23:04;;;;;;;6.30;2.70;;;14.00;38.80;;;;;;10186495;29;20273;-76
2022/03/07 11:28:30;;;;;;;10.30;5.50;;;14.30;35.60;;;;;;10186845;29;20239;-77
2022/03/07 11:33:53;;;;;;;5.38;3.28;;;15.10;33.80;;;;;;10205553;29;20214;-81
2022/03/07 11:39:35;;;;;;;7.45;3.10;;;15.40;30.80;;;;;;10189701;29;20565;-80
2022/03/07 11:45:09;;;;;;;10.30;4.35;;;15.60;30.50;;;;;;10204798;29;20258;-81
2022/03/07 11:50:32;;;;;;;17.63;6.18;;;14.90;30.10;;;;;;10189585;29;20222;-84
2022/03/07 11:55:54;;;;;;;6.68;3.50;;;14.30;32.00;;;;;;10202910;29;20213;-80
2022/03/07 12:01:17;;;;;;;9.15;3.88;;;14.60;32.50;;;;;;10190968;29;20291;-81
2022/03/07 12:06:47;;;;;;;5.40;3.10;;;15.60;31.20;;;;;;10205088;29;20214;-81
2022/03/07 12:12:14;;;;;;;10.07;5.22;;;14.60;30.00;;;;;;10188472;29;20212;-78
2022/03/07 12:17:36;;;;;;;24.42;16.15;;;13.80;33.40;;;;;;10201969;29;20208;-79
2022/03/07 12:22:58;;;;;;;19.80;10.52;;;13.80;33.10;;;;;;10188758;29;20330;-81
2022/03/07 12:28:21;;;;;;;9.07;3.83;;;13.90;35.10;;;;;;10192014;29;20368;-82
2022/03/07 12:33:45;;;;;;;17.00;3.75;;;14.20;33.10;;;;;;10210378;28;20205;-80
2022/03/07 12:39:20;;;;;;;6.13;3.08;;;15.40;31.00;;;;;;10189527;29;20209;-79
2022/03/07 12:44:43;;;;;;;5.35;2.85;;;14.50;31.00;;;;;;10202465;29;20246;-82
2022/03/07 12:50:11;;;;;;;7.60;3.10;;;13.60;31.70;;;;;;10209033;29;20202;-79
2022/03/07 12:55:34;;;;;;;7.30;4.20;;;12.50;36.70;;;;;;10194637;29;20215;-80
2022/03/07 13:00:57;;;;;;;4.63;2.27;;;11.80;38.40;;;;;;10196283;29;20522;-81
2022/03/07 13:06:22;;;;;;;7.60;3.77;;;11.50;40.60;;;;;;10161137;29;20215;-81
2022/03/07 13:11:47;;;;;;;23.13;12.47;;;11.20;42.60;;;;;;10210172;29;20219;-80
2022/03/07 13:17:18;;;;;;;26.70;13.20;;;10.90;50.50;;;;;;10195345;29;20206;-78
2022/03/07 13:22:41;;;;;;;15.23;5.67;;;10.40;59.10;;;;;;10164344;29;20230;-82
2022/03/07 13:28:06;;;;;;;5.40;2.30;;;10.20;60.90;;;;;;10203111;29;20513;-83
2022/03/07 13:33:33;;;;;;;3.80;1.93;;;10.90;55.10;;;;;;10191215;29;20219;-84
2022/03/07 13:38:55;;;;;;;12.43;5.20;;;10.80;54.60;;;;;;10191627;29;20281;-79
2022/03/07 13:44:19;;;;;;;20.37;9.00;;;11.00;56.00;;;;;;10173125;29;20242;-81
2022/03/07 13:49:48;;;;;;;17.40;6.10;;;10.00;61.30;;;;;;10180095;29;20203;-83
2022/03/07 13:55:18;;;;;;;31.67;10.47;;;9.70;74.20;;;;;;10178068;29;20411;-79
2022/03/07 14:00:41;;;;;;;28.67;10.60;;;9.40;80.20;;;;;;10179991;29;20276;-81
2022/03/07 14:06:08;;;;;;;23.27;9.43;;;9.00;91.00;;;;;;10206715;29;20243;-79
2022/03/07 14:11:30;;;;;;;8.90;3.83;;;8.70;92.30;;;;;;10179941;29;20434;-82
2022/03/07 14:16:53;;;;;;;17.40;3.67;;;8.60;93.90;;;;;;10186764;29;20194;-80
2022/03/07 14:22:19;;;;;;;14.07;4.27;;;8.10;94.80;;;;;;10187417;29;20223;-80
2022/03/07 14:27:41;;;;;;;8.80;4.53;;;7.90;97.40;;;;;;10185070;29;20499;-78
2022/03/07 14:33:04;;;;;;;12.57;4.90;;;8.10;97.80;;;;;;10197558;29;20268;-82
2022/03/07 14:38:26;;;;;;;22.53;6.77;;;8.10;98.30;;;;;;10170328;29;20249;-79
2022/03/07 14:43:48;;;;;;;16.23;6.03;;;8.10;99.20;;;;;;10190408;29;20272;-80
2022/03/07 14:49:11;;;;;;;9.77;4.10;;;8.10;99.80;;;;;;10190995;29;20222;-79
2022/03/07 14:54:35;;;;;;;14.37;5.53;;;7.90;99.90;;;;;;10190762;29;20268;-79
2022/03/07 14:59:56;;;;;;;12.30;5.17;;;7.60;99.90;;;;;;10192088;29;20234;-78
2022/03/07 15:05:25;;;;;;;16.00;6.70;;;7.30;99.90;;;;;;10192135;29;20241;-78
2022/03/07 15:10:48;;;;;;;10.10;4.47;;;7.20;99.90;;;;;;10171788;29;20275;-86
2022/03/07 15:16:10;;;;;;;9.50;4.40;;;7.00;99.90;;;;;;10188241;29;20221;-79
2022/03/07 15:21:32;;;;;;;14.40;6.13;;;6.80;99.90;;;;;;10199205;29;20233;-87
2022/03/07 15:26:54;;;;;;;9.10;3.83;;;6.80;99.90;;;;;;10202416;29;20254;-77
2022/03/07 15:32:16;;;;;;;16.37;5.40;;;6.70;99.90;;;;;;10201219;29;20242;-80
2022/03/07 15:37:38;;;;;;;13.87;5.40;;;6.60;99.90;;;;;;10189686;29;20236;-78
2022/03/07 15:43:00;;;;;;;17.03;6.33;;;6.40;99.90;;;;;;10190310;29;20247;-79
2022/03/07 15:48:23;;;;;;;13.90;5.57;;;6.20;99.90;;;;;;10174541;29;20205;-80
2022/03/07 15:53:49;;;;;;;39.07;17.67;;;6.10;99.90;;;;;;10187868;29;20213;-80
2022/03/07 15:59:16;;;;;;;22.63;11.03;;;6.10;99.90;;;;;;10189260;29;20204;-79
2022/03/07 16:04:39;;;;;;;26.73;13.10;;;6.00;99.90;;;;;;10189658;29;20225;-89
2022/03/07 16:10:01;;;;;;;16.45;8.95;;;6.00;99.90;;;;;;10193349;29;20677;-80
2022/03/07 16:15:24;;;;;;;25.67;11.00;;;5.90;99.90;;;;;;10213366;29;20273;-80
2022/03/07 16:20:51;;;;;;;24.63;9.17;;;5.80;99.90;;;;;;10193467;29;20194;-79
2022/03/07 16:26:13;;;;;;;15.83;7.57;;;5.70;99.90;;;;;;10181107;29;20249;-79
2022/03/07 16:31:36;;;;;;;18.07;8.07;;;5.50;99.90;;;;;;10212936;29;20194;-78
2022/03/07 16:36:59;;;;;;;16.77;6.03;;;5.50;99.90;;;;;;10199616;29;20739;-77
2022/03/07 16:42:21;;;;;;;13.43;6.67;;;5.40;99.90;;;;;;10213368;29;20240;-80
2022/03/07 16:47:43;;;;;;;7.13;3.90;;;5.30;99.90;;;;;;10200785;29;20204;-80
2022/03/07 16:53:06;;;;;;;11.10;4.97;;;5.20;99.90;;;;;;10200724;29;20216;-76
2022/03/07 16:58:29;;;;;;;13.57;6.90;;;5.20;99.90;;;;;;10201100;29;20204;-78
2022/03/07 17:03:53;;;;;;;40.83;17.67;;;5.00;99.90;;;;;;10200558;29;20225;-79
2022/03/07 17:09:16;;;;;;;67.53;26.10;;;4.90;99.90;;;;;;10200853;29;20228;-81
2022/03/07 17:14:41;;;;;;;78.33;31.17;;;4.70;99.90;;;;;;10212652;29;20201;-78
2022/03/07 17:20:07;;;;;;;63.70;26.77;;;4.60;99.90;;;;;;10199333;29;20207;-81
2022/03/07 17:25:29;;;;;;;51.77;24.57;;;4.60;99.90;;;;;;10187523;29;20240;-81
2022/03/07 17:30:52;;;;;;;44.47;22.07;;;4.70;99.90;;;;;;10200066;29;20221;-81
2022/03/07 17:36:15;;;;;;;44.27;20.63;;;4.60;99.90;;;;;;10211948;29;20236;-79
2022/03/07 17:41:37;;;;;;;29.77;12.43;;;4.50;99.90;;;;;;10199055;29;20200;-79
2022/03/07 17:47:01;;;;;;;23.83;11.10;;;4.40;99.90;;;;;;10199168;29;20211;-79
2022/03/07 17:52:23;;;;;;;15.43;6.87;;;4.30;99.90;;;;;;10199482;29;20208;-79
2022/03/07 17:57:45;;;;;;;18.73;8.37;;;4.20;99.90;;;;;;10213743;29;20200;-79
2022/03/07 18:03:07;;;;;;;12.13;5.73;;;4.10;99.90;;;;;;10198905;29;20249;-78
2022/03/07 18:08:29;;;;;;;18.03;8.17;;;4.00;99.90;;;;;;10212664;29;20282;-78
2022/03/07 18:13:53;;;;;;;35.03;15.00;;;4.00;99.90;;;;;;10198059;29;20203;-79
2022/03/07 18:19:15;;;;;;;46.60;19.63;;;4.10;99.90;;;;;;10198357;29;20360;-78
2022/03/07 18:24:38;;;;;;;43.60;19.40;;;4.10;99.90;;;;;;10197377;29;20259;-81
2022/03/07 18:30:01;;;;;;;36.50;17.17;;;4.00;99.90;;;;;;10196313;29;20199;-78
2022/03/07 18:35:24;;;;;;;35.67;16.27;;;3.90;99.90;;;;;;10196782;29;20562;-79
2022/03/07 18:40:47;;;;;;;43.07;19.03;;;3.60;99.90;;;;;;10197163;29;20203;-77
2022/03/07 18:46:09;;;;;;;40.20;19.30;;;3.50;99.90;;;;;;10209167;29;20230;-79
2022/03/07 18:51:35;;;;;;;49.43;24.83;;;3.50;99.90;;;;;;10208688;29;20529;-80
2022/03/07 18:56:57;;;;;;;73.00;35.03;;;3.40;99.90;;;;;;10196907;29;20200;-79
2022/03/07 19:02:19;;;;;;;67.33;31.23;;;3.30;99.90;;;;;;10196844;29;20218;-78
2022/03/07 19:07:42;;;;;;;50.20;24.30;;;3.20;99.90;;;;;;10196685;29;20243;-80
2022/03/07 19:13:05;;;;;;;39.70;19.80;;;3.10;99.90;;;;;;10211037;29;20204;-79
2022/03/07 19:18:27;;;;;;;27.13;13.37;;;3.00;99.90;;;;;;10196279;29;20223;-79
2022/03/07 19:23:48;;;;;;;28.90;12.13;;;2.80;99.90;;;;;;10209806;29;20323;-78
2022/03/07 19:29:11;;;;;;;26.70;12.20;;;2.70;99.90;;;;;;10169402;29;20208;-77
2022/03/07 19:34:34;;;;;;;20.13;11.00;;;2.60;99.90;;;;;;10184906;29;20494;-79
2022/03/07 19:39:56;;;;;;;29.10;14.73;;;2.60;99.90;;;;;;10158681;29;20200;-79
2022/03/07 19:45:20;;;;;;;50.30;24.63;;;2.60;99.90;;;;;;10169726;29;20287;-76
2022/03/07 19:50:42;;;;;;;45.80;23.90;;;2.50;99.90;;;;;;10176458;29;20190;-79
2022/03/07 19:56:05;;;;;;;33.37;14.70;;;2.50;99.90;;;;;;10208717;29;20367;-79
2022/03/07 20:01:30;;;;;;;33.30;13.53;;;2.40;99.90;;;;;;10183053;29;20266;-79
2022/03/07 20:06:56;;;;;;;28.33;14.27;;;2.20;99.90;;;;;;10195274;29;20469;-81
2022/03/07 20:12:18;;;;;;;24.90;13.10;;;2.30;99.90;;;;;;10207294;29;20226;-78
2022/03/07 20:17:40;;;;;;;22.17;12.17;;;2.20;99.90;;;;;;10208004;29;20489;-79
2022/03/07 20:23:02;;;;;;;23.50;12.07;;;2.10;99.90;;;;;;10208295;29;20228;-79
2022/03/07 20:28:24;;;;;;;23.60;12.20;;;2.00;99.90;;;;;;10208075;29;20211;-80
2022/03/07 20:33:46;;;;;;;26.67;13.43;;;2.00;99.90;;;;;;10222910;29;20282;-80
2022/03/07 20:39:09;;;;;;;24.83;13.13;;;1.90;99.90;;;;;;10207849;29;20230;-80
2022/03/07 20:44:34;;;;;;;33.87;13.50;;;1.90;99.90;;;;;;10207009;29;20428;-80
2022/03/07 20:49:56;;;;;;;57.87;25.27;;;1.80;99.90;;;;;;10207653;29;20211;-80
2022/03/07 20:55:19;;;;;;;106.63;40.53;;;1.80;99.90;;;;;;10201453;29;20552;-80
2022/03/07 21:00:42;;;;;;;67.03;27.43;;;1.80;99.90;;;;;;10201755;29;20378;-79
2022/03/07 21:06:04;;;;;;;27.53;12.70;;;1.80;99.90;;;;;;10215613;29;20597;-79
2022/03/07 21:11:26;;;;;;;21.03;8.80;;;1.80;99.90;;;;;;10201285;29;20301;-80
2022/03/07 21:16:48;;;;;;;24.37;10.43;;;1.80;99.90;;;;;;10213194;29;20198;-79
2022/03/07 21:22:11;;;;;;;24.83;11.77;;;1.80;99.90;;;;;;10212264;29;20248;-80
2022/03/07 21:27:33;;;;;;;26.83;12.73;;;1.60;99.90;;;;;;10200264;29;20246;-77
2022/03/07 21:32:55;;;;;;;24.63;11.93;;;1.60;99.90;;;;;;10214807;29;20424;-80
2022/03/07 21:38:18;;;;;;;17.97;9.33;;;1.60;99.90;;;;;;10214661;29;20233;-79
2022/03/07 21:43:41;;;;;;;31.80;15.70;;;1.70;99.90;;;;;;10214531;29;20238;-79
2022/03/07 21:49:03;;;;;;;32.90;15.53;;;1.70;99.90;;;;;;10199795;29;20270;-80
2022/03/07 21:54:25;;;;;;;39.07;16.93;;;1.70;99.90;;;;;;10213778;29;20206;-80
2022/03/07 21:59:48;;;;;;;29.03;14.90;;;1.60;99.90;;;;;;10199363;29;20521;-80
2022/03/07 22:05:12;;;;;;;25.90;13.17;;;1.60;99.90;;;;;;10212396;29;20237;-80
2022/03/07 22:10:34;;;;;;;27.20;13.23;;;1.50;99.90;;;;;;10213845;29;20214;-79
2022/03/07 22:15:56;;;;;;;28.20;14.40;;;1.50;99.90;;;;;;10213255;29;20222;-79
2022/03/07 22:21:18;;;;;;;24.73;12.73;;;1.50;99.90;;;;;;10210445;29;20222;-78
2022/03/07 22:26:41;;;;;;;25.57;12.93;;;1.50;99.90;;;;;;10197874;29;20438;-79
2022/03/07 22:32:04;;;;;;;22.47;12.00;;;1.50;99.90;;;;;;10212744;29;20217;-79
2022/03/07 22:37:25;;;;;;;26.13;12.63;;;1.40;99.90;;;;;;10196704;29;20266;-79
2022/03/07 22:42:48;;;;;;;22.03;12.93;;;1.40;99.90;;;;;;10183765;29;20242;-77
2022/03/07 22:48:11;;;;;;;25.00;14.07;;;1.30;99.90;;;;;;10197313;29;20448;-79
2022/03/07 22:53:36;;;;;;;23.73;12.50;;;1.20;99.90;;;;;;10212180;29;20202;-79
2022/03/07 22:59:00;;;;;;;17.97;9.57;;;1.10;99.90;;;;;;10211816;29;20207;-78
2022/03/07 23:04:22;;;;;;;14.63;7.90;;;1.20;99.90;;;;;;10210710;29;20300;-79
2022/03/07 23:09:44;;;;;;;16.17;7.60;;;1.20;99.90;;;;;;10209650;29;20261;-76
2022/03/07 23:15:08;;;;;;;20.57;8.87;;;1.10;99.90;;;;;;10196033;29;20199;-78
2022/03/07 23:20:31;;;;;;;18.77;8.47;;;1.10;99.90;;;;;;10182243;29;20204;-78
2022/03/07 23:25:53;;;;;;;19.83;9.23;;;1.10;99.90;;;;;;10195622;29;20543;-79
2022/03/07 23:31:17;;;;;;;18.60;9.53;;;1.00;99.90;;;;;;10195279;29;20212;-78
2022/03/07 23:36:40;;;;;;;18.77;9.50;;;1.10;99.90;;;;;;10208832;29;20200;-79
2022/03/07 23:42:03;;;;;;;26.50;10.53;;;1.10;99.90;;;;;;10208775;29;20200;-79
2022/03/07 23:47:25;;;;;;;27.53;11.93;;;1.10;99.90;;;;;;10195758;29;20201;-79
2022/03/07 23:52:46;;;;;;;26.37;12.07;;;1.10;99.90;;;;;;10195967;29;20207;-79
2022/03/07 23:58:09;;;;;;;29.17;13.70;;;1.10;99.90;;;;;;10210556;29;20202;-79
